Time;durP1;ratioP1;P1;durP2;ratioP2;P2;SDS_P1;SDS_P2;PMS_P1;PMS_P2;Temp;Humidity;BMP_temperature;BMP_pressure;BME280_temperature;BME280_humidity;BME280_pressure;Samples;Min_cycle;Max_cycle;Signal;HPM_P1;HPM_P2
2022/12/23 00:01:12;;;;;;;;;0.00;0.00;;;;;14.48;82.44;100507.16;4979418;28;47994;-60
2022/12/23 00:03:38;;;;;;;;;1.00;0.00;;;;;14.47;82.54;100508.16;4978114;28;45498;-50
2022/12/23 00:06:08;;;;;;;;;1.00;1.00;;;;;14.42;82.46;100508.69;4979378;28;45368;-47
2022/12/23 00:08:33;;;;;;;;;0.00;0.00;;;;;14.39;82.36;100495.66;4975580;28;45301;-50
2022/12/23 00:10:58;;;;;;;;;1.00;1.00;;;;;14.49;82.65;100511.53;4975721;28;46307;-50
2022/12/23 00:16:13;;;;;;;;;0.00;0.00;;;;;14.48;82.20;100510.69;4976166;28;45475;-49
2022/12/23 00:18:40;;;;;;;;;0.00;0.00;;;;;14.48;83.17;100508.00;4976202;28;45426;-47
2022/12/23 00:21:08;;;;;;;;;2.00;0.33;;;;;14.45;83.04;100505.69;4975708;28;46229;-50
2022/12/23 00:23:35;;;;;;;;;0.33;0.33;;;;;14.49;83.15;100503.50;4975821;28;45438;-49
2022/12/23 00:26:01;;;;;;;;;2.00;1.00;;;;;14.45;82.95;100505.69;4976111;28;45358;-47
2022/12/23 00:28:28;;;;;;;;;0.00;0.00;;;;;14.48;83.00;100516.03;4976193;28;45490;-49
2022/12/23 00:30:57;;;;;;;;;1.00;1.00;;;;;14.47;83.37;100510.84;4975687;28;45992;-49
2022/12/23 00:33:24;;;;;;;;;0.00;0.00;;;;;14.48;83.30;100512.50;4975608;28;45419;-50
2022/12/23 00:35:50;;;;;;;;;0.00;0.00;;;;;14.40;83.11;100501.84;4975760;28;45355;-51
2022/12/23 00:42:52;;;;;;;;;0.67;0.67;;;;;14.45;83.39;100511.03;4975788;28;45378;-49
2022/12/23 00:43:47;;;;;;;;;0.00;0.00;;;;;14.47;83.66;100506.31;4975516;28;45289;-48
2022/12/23 00:46:13;;;;;;;;;0.00;0.00;;;;;14.47;83.75;100514.34;4975752;28;45170;-48
2022/12/23 00:51:22;;;;;;;;;0.00;0.00;;;;;14.42;84.47;100508.69;4975497;28;45278;-48
2022/12/23 00:53:47;;;;;;;;;0.00;0.00;;;;;14.40;85.09;100521.41;4975413;28;45357;-48
2022/12/23 00:56:12;;;;;;;;;0.00;0.00;;;;;14.39;85.92;100526.94;4975050;28;52448;-48
2022/12/23 00:58:38;;;;;;;;;0.00;0.00;;;;;14.37;86.40;100534.34;4975836;28;45482;-48
2022/12/23 01:06:31;;;;;;;;;0.00;0.00;;;;;14.32;88.13;100539.38;4975580;28;45405;-47
2022/12/23 01:08:57;;;;;;;;;0.00;0.00;;;;;14.28;88.54;100551.44;4975383;28;45333;-50
2022/12/23 01:11:22;;;;;;;;;1.00;1.00;;;;;14.28;88.92;100552.25;4975214;28;53607;-47
2022/12/23 01:13:47;;;;;;;;;0.00;0.00;;;;;14.25;89.19;100546.44;4975326;28;47919;-48
2022/12/23 01:16:12;;;;;;;;;1.33;0.00;;;;;14.21;89.22;100541.44;4975326;28;45497;-49
2022/12/23 01:18:39;;;;;;;;;0.00;0.00;;;;;14.28;89.62;100551.44;4974138;28;45220;-47
2022/12/23 01:21:07;;;;;;;;;1.00;0.00;;;;;14.25;90.00;100552.63;4975190;28;46158;-51
2022/12/23 01:23:33;;;;;;;;;0.33;0.33;;;;;14.23;90.13;100552.78;4975049;28;45432;-47
2022/12/23 01:26:00;;;;;;;;;0.00;0.00;;;;;14.24;90.26;100553.59;4975317;28;45350;-49
2022/12/23 01:28:28;;;;;;;;;1.00;0.33;;;;;14.22;90.34;100559.16;4975178;28;45417;-50
2022/12/23 01:30:53;;;;;;;;;0.33;0.33;;;;;14.23;90.47;100551.94;4975017;28;46651;-51
2022/12/23 01:33:18;;;;;;;;;0.00;0.00;;;;;14.19;90.71;100556.81;4975198;28;45307;-48
2022/12/23 01:35:44;;;;;;;;;0.00;0.00;;;;;14.08;90.94;100527.81;4975265;28;45209;-49
2022/12/23 01:38:09;;;;;;;;;0.00;0.00;;;;;14.18;90.83;100555.16;4975226;28;45211;-47
2022/12/23 01:40:40;;;;;;;;;0.00;0.00;;;;;14.17;91.07;100556.16;4974936;28;46190;-46
2022/12/23 01:43:09;;;;;;;;;1.00;1.00;;;;;14.18;91.20;100551.66;4974898;28;45397;-46
2022/12/23 01:45:35;;;;;;;;;0.00;0.00;;;;;14.16;90.84;100554.50;4975184;28;45401;-53
2022/12/23 01:48:08;;;;;;;;;0.00;0.00;;;;;14.14;91.26;100555.69;4975072;28;45342;-49
2022/12/23 01:50:41;;;;;;;;;0.00;0.00;;;;;14.06;91.48;100532.47;4974979;28;46223;-48
2022/12/23 01:53:12;;;;;;;;;1.00;1.00;;;;;14.14;91.61;100556.50;4974638;28;45400;-59
2022/12/23 01:56:02;;;;;;;;;1.00;1.00;;;;;14.14;91.72;100559.19;4973795;28;45441;-56
2022/12/23 01:58:36;;;;;;;;;1.67;0.00;;;;;14.14;91.67;100547.66;4974866;28;45303;-47
2022/12/23 02:03:48;;;;;;;;;1.00;1.00;;;;;14.17;91.57;100555.34;4974583;28;45390;-48
2022/12/23 02:09:16;;;;;;;;;1.00;0.00;;;;;14.15;91.53;100552.00;4974827;28;45329;-48
2022/12/23 02:12:20;;;;;;;;;0.00;0.00;;;;;14.13;91.69;100554.84;4974548;28;47306;-48
2022/12/23 02:18:30;;;;;;;;;0.67;0.67;;;;;14.14;91.08;100561.88;4974575;28;45524;-49
2022/12/23 02:21:18;;;;;;;;;2.67;1.00;;;;;14.14;90.77;100555.69;4974728;28;45265;-48
2022/12/23 02:24:01;;;;;;;;;2.00;0.33;;;;;14.16;90.94;100545.66;4974096;28;47202;-46
2022/12/23 02:26:48;;;;;;;;;0.00;0.00;;;;;14.15;90.63;100542.13;4974251;28;45286;-50
2022/12/23 02:29:25;;;;;;;;;1.67;1.00;;;;;14.16;90.64;100549.16;4974208;28;45431;-47
2022/12/23 02:32:00;;;;;;;;;0.00;0.00;;;;;14.18;90.77;100543.63;4974435;28;45420;-48
2022/12/23 02:34:54;;;;;;;;;3.00;2.67;;;;;14.19;90.43;100545.28;4974317;28;45983;-53
2022/12/23 02:37:33;;;;;;;;;0.00;0.00;;;;;14.20;90.38;100546.97;4975724;28;45304;-46
2022/12/23 02:40:08;;;;;;;;;0.00;0.00;;;;;14.17;89.98;100536.63;4974427;28;45372;-45
2022/12/23 02:42:46;;;;;;;;;0.00;0.00;;;;;14.19;89.83;100526.56;4974546;28;45307;-46
2022/12/23 02:45:36;;;;;;;;;2.00;0.00;;;;;14.18;89.53;100540.94;4974592;28;46184;-47
2022/12/23 02:48:15;;;;;;;;;2.00;0.00;;;;;14.17;89.27;100539.28;4974211;28;45869;-48
2022/12/23 02:50:43;;;;;;;;;1.33;0.00;;;;;14.12;89.15;100526.44;4974558;28;45280;-48
2022/12/23 02:53:18;;;;;;;;;1.00;1.00;;;;;14.15;88.53;100527.91;4974756;28;45427;-49
2022/12/23 02:55:46;;;;;;;;;1.67;0.00;;;;;14.18;88.24;100533.75;4974443;28;45288;-48
2022/12/23 02:58:15;;;;;;;;;1.00;1.00;;;;;14.09;88.21;100518.75;4974401;28;45590;-49
2022/12/23 03:00:42;;;;;;;;;4.67;1.33;;;;;14.17;88.19;100529.41;4974833;28;45382;-50
2022/12/23 03:03:07;;;;;;;;;2.00;2.00;;;;;14.19;87.84;100538.09;4974783;28;45295;-45
2022/12/23 03:05:39;;;;;;;;;0.67;0.67;;;;;14.18;87.71;100547.13;4975650;28;46223;-53
2022/12/23 03:08:11;;;;;;;;;3.50;0.00;;;;;14.19;87.64;100551.47;4975352;28;45383;-45
2022/12/23 03:10:57;;;;;;;;;4.00;1.00;;;;;14.18;87.49;100541.78;4973814;28;45361;-45
2022/12/23 03:13:41;;;;;;;;;3.00;1.33;;;;;14.18;87.18;100544.47;4974235;28;45370;-51
2022/12/23 03:16:31;;;;;;;;;2.50;0.00;;;;;14.18;87.07;100543.63;4973593;28;47362;-46
2022/12/23 03:19:41;;;;;;;;;2.00;1.00;;;;;14.17;86.88;100539.28;4973664;28;45304;-47
2022/12/23 03:22:25;;;;;;;;;2.00;0.33;;;;;14.16;86.67;100530.44;4973991;28;45362;-46
2022/12/23 03:25:17;;;;;;;;;1.00;1.00;;;;;14.15;86.68;100519.88;4973896;28;45486;-48
2022/12/23 03:27:53;;;;;;;;;0.00;0.00;;;;;14.16;86.30;100527.75;4973412;28;46452;-49
2022/12/23 03:30:21;;;;;;;;;2.00;0.67;;;;;14.15;86.58;100522.56;4973646;28;45325;-46
2022/12/23 03:33:03;;;;;;;;;0.33;0.33;;;;;14.12;86.29;100529.13;4973464;28;45310;-48
2022/12/23 03:35:33;;;;;;;;;2.00;1.00;;;;;14.15;86.32;100528.75;4973554;28;45282;-48
2022/12/23 03:38:01;;;;;;;;;1.33;0.00;;;;;14.08;86.00;100517.09;4973357;28;47266;-47
2022/12/23 03:40:51;;;;;;;;;3.67;1.00;;;;;14.15;86.13;100533.25;4973209;28;45537;-47
2022/12/23 03:43:24;;;;;;;;;1.00;0.00;;;;;14.13;86.27;100525.44;4975575;28;45518;-48
2022/12/23 03:45:56;;;;;;;;;1.00;1.00;;;;;13.91;86.07;100496.78;4976736;28;45406;-47
2022/12/23 03:48:28;;;;;;;;;3.00;1.00;;;;;14.15;86.06;100533.25;4976166;28;46352;-48
2022/12/23 03:50:59;;;;;;;;;0.00;0.00;;;;;14.14;86.10;100532.44;4976423;28;45355;-49
2022/12/23 03:53:36;;;;;;;;;1.00;1.00;;;;;14.12;86.18;100528.28;4976511;28;45461;-46
2022/12/23 03:56:06;;;;;;;;;3.00;0.33;;;;;14.11;86.06;100532.78;4976336;28;45568;-47
2022/12/23 03:58:37;;;;;;;;;1.67;1.00;;;;;14.11;86.43;100535.44;4975979;28;46651;-50
2022/12/23 04:01:31;;;;;;;;;2.00;2.00;;;;;14.11;86.24;100531.94;4976126;28;45480;-48
2022/12/23 04:04:13;;;;;;;;;2.33;1.00;;;;;14.10;86.29;100538.31;4976452;28;45439;-51
2022/12/23 04:06:51;;;;;;;;;1.00;1.00;;;;;14.06;86.56;100528.97;4976479;28;45285;-57
2022/12/23 04:09:20;;;;;;;;;0.33;0.00;;;;;14.01;86.51;100513.44;4975680;28;45517;-46
2022/12/23 04:11:46;;;;;;;;;2.33;1.00;;;;;14.09;86.45;100513.41;4976055;28;45318;-49
2022/12/23 04:14:16;;;;;;;;;2.33;1.00;;;;;14.08;86.35;100498.38;4976106;28;45561;-49
2022/12/23 04:16:42;;;;;;;;;0.33;0.00;;;;;14.12;86.20;100514.91;4976166;28;45438;-47
2022/12/23 04:19:08;;;;;;;;;0.00;0.00;;;;;14.11;86.30;100511.38;4975854;28;46914;-47
2022/12/23 04:21:33;;;;;;;;;2.00;0.67;;;;;14.10;86.26;100506.22;4975924;28;45431;-48
2022/12/23 04:23:58;;;;;;;;;2.00;0.67;;;;;14.10;86.28;100504.38;4975624;28;45344;-49
2022/12/23 04:26:23;;;;;;;;;1.67;1.00;;;;;14.08;86.54;100506.41;4976095;28;45343;-47
2022/12/23 04:28:49;;;;;;;;;1.33;0.00;;;;;14.08;86.57;100526.97;4975701;28;49701;-48
2022/12/23 04:31:14;;;;;;;;;3.00;1.00;;;;;14.07;86.79;100525.28;4975880;28;45444;-48
2022/12/23 04:33:39;;;;;;;;;0.00;0.00;;;;;14.07;87.09;100534.13;4975773;28;45493;-47
2022/12/23 04:36:05;;;;;;;;;0.00;0.00;;;;;14.01;87.24;100524.16;4975935;28;45393;-49
2022/12/23 04:38:30;;;;;;;;;2.00;0.33;;;;;14.05;87.04;100521.97;4975666;28;47543;-45
2022/12/23 04:40:55;;;;;;;;;2.33;1.00;;;;;14.07;87.08;100528.78;4975377;28;46955;-48
2022/12/23 04:43:20;;;;;;;;;1.67;0.00;;;;;14.07;87.05;100523.44;4975813;28;45267;-47
2022/12/23 04:45:49;;;;;;;;;2.67;1.00;;;;;14.05;87.44;100517.44;4974490;28;45328;-46
2022/12/23 04:48:15;;;;;;;;;3.00;1.00;;;;;14.05;87.41;100514.75;4975065;28;46300;-48
2022/12/23 04:50:40;;;;;;;;;1.00;1.00;;;;;14.05;87.27;100498.72;4975464;28;45371;-48
2022/12/23 04:53:05;;;;;;;;;3.33;1.00;;;;;14.03;87.55;100495.41;4975002;28;45448;-47
2022/12/23 04:55:31;;;;;;;;;2.67;1.33;;;;;14.00;87.55;100498.41;4975566;28;45313;-46
2022/12/23 04:57:56;;;;;;;;;3.33;1.00;;;;;14.02;87.67;100503.56;4975349;28;45905;-47
2022/12/23 05:00:21;;;;;;;;;3.67;3.00;;;;;14.01;87.67;100500.06;4975556;28;45317;-50
2022/12/23 05:02:47;;;;;;;;;3.67;1.00;;;;;13.97;87.57;100501.44;4975638;28;45250;-47
2022/12/23 05:05:12;;;;;;;;;2.67;2.00;;;;;14.00;87.88;100487.72;4975425;28;45596;-49
2022/12/23 05:07:37;;;;;;;;;2.00;0.00;;;;;14.01;87.83;100481.34;4977728;27;46270;-47
2022/12/23 05:10:03;;;;;;;;;2.00;2.00;;;;;14.00;87.90;100493.06;4975021;28;48137;-46
2022/12/23 05:12:29;;;;;;;;;3.33;3.33;;;;;14.04;88.05;100491.72;4976097;28;45389;-51
2022/12/23 05:14:54;;;;;;;;;3.33;2.33;;;;;14.03;88.09;100491.88;4976532;28;45497;-51
2022/12/23 05:17:20;;;;;;;;;2.00;2.00;;;;;14.04;88.02;100494.38;4975515;28;45460;-48
2022/12/23 05:19:45;;;;;;;;;1.67;1.67;;;;;14.02;88.17;100495.56;4975964;28;45402;-51
2022/12/23 05:22:10;;;;;;;;;2.67;2.00;;;;;14.01;87.98;100500.06;4975796;28;46451;-47
2022/12/23 05:24:36;;;;;;;;;3.00;2.00;;;;;14.04;88.02;100491.72;4975758;28;45489;-46
2022/12/23 05:27:01;;;;;;;;;2.67;2.00;;;;;14.06;88.16;100488.84;4974855;28;49480;-57
2022/12/23 05:29:27;;;;;;;;;2.67;2.00;;;;;14.04;88.21;100491.72;4975183;28;45161;-61
2022/12/23 05:31:52;;;;;;;;;1.00;1.00;;;;;14.04;88.48;100490.88;4977803;28;45334;-51
2022/12/23 05:34:17;;;;;;;;;3.67;2.00;;;;;14.03;88.73;100487.38;4975070;28;45465;-60
2022/12/23 05:36:43;;;;;;;;;8.00;1.00;;;;;14.04;88.90;100480.19;4974717;28;47166;-46
2022/12/23 05:39:08;;;;;;;;;1.00;1.00;;;;;14.04;89.01;100481.00;4974917;28;45274;-47
2022/12/23 05:41:33;;;;;;;;;5.67;3.00;;;;;14.02;89.06;100483.00;4974953;28;45237;-48
2022/12/23 05:43:59;;;;;;;;;3.67;3.67;;;;;14.06;89.31;100480.81;4975188;28;45425;-47
2022/12/23 05:46:24;;;;;;;;;1.33;1.00;;;;;14.02;89.17;100471.47;4974658;28;54073;-48
2022/12/23 05:48:49;;;;;;;;;1.67;1.67;;;;;13.97;89.72;100456.78;4976044;28;45255;-47
2022/12/23 05:51:15;;;;;;;;;4.33;1.67;;;;;14.04;90.07;100470.31;4973654;28;45411;-50
2022/12/23 05:53:40;;;;;;;;;1.67;0.33;;;;;14.02;90.37;100452.75;4975109;28;45218;-50
2022/12/23 05:56:06;;;;;;;;;3.33;2.00;;;;;13.94;90.91;100434.91;4974713;28;46044;-48
2022/12/23 05:58:31;;;;;;;;;0.00;0.00;;;;;13.87;90.89;100432.13;4974642;28;45382;-48
2022/12/23 06:00:57;;;;;;;;;0.33;0.33;;;;;14.02;90.23;100453.59;4975132;28;45449;-49
2022/12/23 06:03:22;;;;;;;;;2.33;1.33;;;;;14.01;91.17;100454.63;4975122;28;45612;-46
2022/12/23 06:05:51;;;;;;;;;1.00;1.00;;;;;14.03;91.44;100459.78;4973569;28;46157;-49
2022/12/23 06:08:16;;;;;;;;;3.67;2.00;;;;;14.01;91.73;100459.97;4974789;28;45561;-49
2022/12/23 06:10:42;;;;;;;;;2.00;2.00;;;;;13.98;92.29;100453.09;4974622;28;45378;-50
2022/12/23 06:13:08;;;;;;;;;4.00;1.67;;;;;13.99;92.72;100456.66;4974786;28;45505;-49
2022/12/23 06:15:33;;;;;;;;;2.33;1.00;;;;;13.95;92.96;100449.97;4974613;28;46257;-45
2022/12/23 06:17:58;;;;;;;;;6.67;5.00;;;;;13.98;92.46;100446.94;4974468;28;45303;-46
2022/12/23 06:20:24;;;;;;;;;4.00;3.00;;;;;13.96;93.41;100452.47;4975777;28;45246;-46
2022/12/23 06:22:49;;;;;;;;;5.67;2.67;;;;;13.95;93.60;100452.66;4974797;28;45297;-50
2022/12/23 06:25:14;;;;;;;;;5.33;3.33;;;;;13.95;93.66;100453.47;4974235;28;47518;-48
2022/12/23 06:27:40;;;;;;;;;3.67;2.00;;;;;13.88;93.74;100444.50;4974347;28;45351;-46
2022/12/23 06:30:06;;;;;;;;;2.33;2.33;;;;;13.96;93.68;100457.00;4974317;28;45287;-46
2022/12/23 06:32:31;;;;;;;;;4.67;4.00;;;;;13.98;93.71;100462.97;4975684;28;45322;-50
2022/12/23 06:34:57;;;;;;;;;4.00;3.00;;;;;13.97;94.02;100456.78;4974178;28;45400;-47
2022/12/23 06:37:22;;;;;;;;;2.00;2.00;;;;;14.00;94.06;100457.47;4974056;28;48399;-49
2022/12/23 06:39:47;;;;;;;;;4.00;2.33;;;;;14.01;94.12;100449.25;4974219;28;45421;-50
2022/12/23 06:42:13;;;;;;;;;0.00;0.00;;;;;14.00;93.81;100439.59;4974560;28;45327;-50
2022/12/23 06:44:38;;;;;;;;;1.67;1.00;;;;;14.01;94.19;100433.22;4974236;28;46109;-51
2022/12/23 06:47:03;;;;;;;;;2.00;2.00;;;;;14.02;93.59;100436.72;4975027;28;54654;-48
2022/12/23 06:49:29;;;;;;;;;1.67;1.00;;;;;13.92;94.14;100412.88;4974294;28;45346;-49
2022/12/23 06:51:54;;;;;;;;;1.00;1.00;;;;;14.04;94.08;100443.56;4974410;28;45307;-45
2022/12/23 06:54:19;;;;;;;;;2.33;2.33;;;;;14.03;93.98;100430.34;4972480;28;53063;-48
2022/12/23 06:56:45;;;;;;;;;0.67;0.67;;;;;14.06;94.13;100425.50;4973953;28;45294;-48
2022/12/23 06:59:10;;;;;;;;;3.33;2.00;;;;;14.08;94.38;100420.81;4973830;28;45263;-50
2022/12/23 07:01:35;;;;;;;;;1.67;1.67;;;;;14.06;94.20;100416.63;4974176;28;45350;-46
2022/12/23 07:04:01;;;;;;;;;1.33;1.00;;;;;14.08;93.74;100414.63;4973932;28;46055;-52
2022/12/23 07:06:27;;;;;;;;;1.00;1.00;;;;;14.10;93.27;100404.56;4973663;28;45514;-48
2022/12/23 07:08:52;;;;;;;;;0.00;0.00;;;;;14.11;93.80;100409.72;4973924;28;45236;-49
2022/12/23 07:11:17;;;;;;;;;2.00;1.00;;;;;14.12;93.66;100399.91;4973935;28;45482;-48
2022/12/23 07:13:45;;;;;;;;;0.33;0.33;;;;;14.12;93.58;100400.72;4973831;28;47229;-47
2022/12/23 07:16:10;;;;;;;;;0.00;0.00;;;;;14.12;93.78;100399.91;4974459;28;45170;-47
2022/12/23 07:18:35;;;;;;;;;0.33;0.33;;;;;14.14;93.19;100403.22;4976580;28;45406;-49
2022/12/23 07:21:02;;;;;;;;;0.33;0.00;;;;;14.13;93.06;100405.06;4977278;28;45428;-47
2022/12/23 07:23:28;;;;;;;;;2.00;0.00;;;;;14.15;93.32;100399.50;4976524;28;45272;-47
2022/12/23 07:25:54;;;;;;;;;1.00;1.00;;;;;14.15;93.48;100397.66;4976392;28;45368;-48
2022/12/23 07:28:20;;;;;;;;;0.00;0.00;;;;;14.17;93.51;100401.00;4976950;28;45395;-47
2022/12/23 07:30:45;;;;;;;;;0.00;0.00;;;;;14.21;92.92;100388.13;4976814;28;45423;-46
2022/12/23 07:33:10;;;;;;;;;1.67;1.00;;;;;14.21;93.20;100386.28;4976476;28;46878;-50
2022/12/23 07:35:36;;;;;;;;;1.00;1.00;;;;;14.22;93.23;100387.09;4975034;28;47036;-47
2022/12/23 07:38:01;;;;;;;;;0.67;0.67;;;;;14.20;92.98;100389.13;4976384;28;45344;-48
2022/12/23 07:40:27;;;;;;;;;0.00;0.00;;;;;14.26;92.82;100387.56;4975497;28;45257;-50
2022/12/23 07:42:57;;;;;;;;;0.67;0.67;;;;;14.22;92.63;100389.78;4976435;28;47155;-51
2022/12/23 07:45:23;;;;;;;;;0.00;0.00;;;;;14.27;92.58;100395.41;4975160;28;45422;-48
2022/12/23 07:47:56;;;;;;;;;0.00;0.00;;;;;14.31;92.23;100403.91;4976481;28;45776;-50
2022/12/23 07:50:22;;;;;;;;;0.00;0.00;;;;;14.31;92.09;100409.28;4976790;28;45431;-49
2022/12/23 07:52:47;;;;;;;;;0.67;0.67;;;;;14.33;92.28;100399.22;4976513;28;45272;-51
2022/12/23 07:55:13;;;;;;;;;1.00;0.00;;;;;14.32;92.02;100389.53;4976226;28;45463;-50
2022/12/23 07:57:39;;;;;;;;;2.00;0.75;;;;;14.33;91.69;100396.56;4976203;28;45764;-47
2022/12/23 08:00:06;;;;;;;;;0.67;0.67;;;;;14.36;91.61;100394.31;4976474;28;45307;-46
2022/12/23 08:02:32;;;;;;;;;0.00;0.00;;;;;14.37;91.83;100385.31;4975996;28;46099;-60
2022/12/23 08:04:57;;;;;;;;;0.00;0.00;;;;;14.37;91.59;100379.97;4976440;28;45776;-48
2022/12/23 08:07:22;;;;;;;;;1.00;1.00;;;;;14.40;91.40;100384.94;4976431;28;45340;-47
2022/12/23 08:09:48;;;;;;;;;0.00;0.00;;;;;14.42;91.10;100382.09;4976310;28;45276;-48
2022/12/23 08:12:13;;;;;;;;;0.00;0.00;;;;;14.44;90.71;100388.09;4976204;28;45457;-52
2022/12/23 08:14:38;;;;;;;;;0.67;0.67;;;;;14.37;90.72;100368.44;4977008;28;45338;-49
2022/12/23 08:17:04;;;;;;;;;0.00;0.00;;;;;14.37;90.86;100366.59;4976768;28;45270;-62
2022/12/23 08:19:29;;;;;;;;;2.00;0.00;;;;;14.47;90.81;100387.72;4991495;28;45489;-50
2022/12/23 08:21:54;;;;;;;;;0.33;0.33;;;;;14.44;90.70;100372.03;4975866;28;46298;-48
2022/12/23 08:24:20;;;;;;;;;2.00;0.00;;;;;14.51;90.47;100374.84;4975979;28;45232;-51
2022/12/23 08:26:45;;;;;;;;;2.00;0.67;;;;;14.52;90.24;100355.09;4975960;28;45351;-49
2022/12/23 08:29:10;;;;;;;;;0.00;0.00;;;;;14.52;90.09;100355.09;4975303;28;45509;-50
2022/12/23 08:31:36;;;;;;;;;1.00;1.00;;;;;14.55;90.19;100355.56;4975758;28;46260;-48
2022/12/23 08:34:01;;;;;;;;;0.67;0.00;;;;;14.45;90.20;100347.78;4975818;28;45333;-56
2022/12/23 08:36:32;;;;;;;;;0.00;0.00;;;;;14.56;89.87;100359.91;4976074;28;45821;-54
2022/12/23 08:39:00;;;;;;;;;0.00;0.00;;;;;14.59;89.72;100356.03;4976043;28;45423;-50
2022/12/23 08:41:29;;;;;;;;;1.33;1.00;;;;;14.57;89.79;100358.88;4975521;28;46218;-48
2022/12/23 08:43:54;;;;;;;;;1.00;0.00;;;;;14.56;89.64;100351.03;4975742;28;45452;-50
2022/12/23 08:46:20;;;;;;;;;0.00;0.00;;;;;14.61;89.60;100349.47;4975956;28;45420;-60
2022/12/23 08:48:45;;;;;;;;;0.00;0.00;;;;;14.63;89.69;100344.78;4975951;28;45398;-61
2022/12/23 08:51:15;;;;;;;;;2.00;0.00;;;;;14.65;89.38;100337.38;4975531;28;45509;-53
2022/12/23 08:53:41;;;;;;;;;1.50;1.50;;;;;14.58;89.38;100325.78;4975676;28;45395;-49
2022/12/23 08:56:10;;;;;;;;;0.00;0.00;;;;;14.67;89.36;100337.22;4975555;28;45517;-49
2022/12/23 08:58:37;;;;;;;;;1.00;0.00;;;;;14.58;89.21;100317.75;4975677;28;45378;-49
2022/12/23 09:01:05;;;;;;;;;0.50;0.00;;;;;14.67;89.09;100315.81;4975572;28;45330;-56
2022/12/23 09:03:31;;;;;;;;;0.25;0.00;;;;;14.67;89.16;100318.50;4975426;28;45327;-50
2022/12/23 09:05:57;;;;;;;;;0.50;0.00;;;;;14.58;88.82;100293.66;4975526;28;45481;-50
2022/12/23 09:08:22;;;;;;;;;1.75;0.00;;;;;14.62;89.01;100297.63;4958274;28;45622;-61
2022/12/23 09:10:47;;;;;;;;;0.00;0.00;;;;;14.73;89.23;100289.13;4975266;28;46185;-48
2022/12/23 09:13:13;;;;;;;;;1.25;0.50;;;;;14.72;88.82;100268.72;4975246;28;45314;-47
2022/12/23 09:15:42;;;;;;;;;0.00;0.00;;;;;14.70;88.73;100237.78;4975608;28;45515;-49
2022/12/23 09:18:08;;;;;;;;;0.00;0.00;;;;;14.70;88.68;100227.91;4975630;28;45224;-49
2022/12/23 09:20:34;;;;;;;;;0.75;0.50;;;;;14.68;88.85;100215.72;4975372;28;46285;-49
2022/12/23 09:23:00;;;;;;;;;0.00;0.00;;;;;14.70;88.97;100230.56;4975253;28;45312;-49
2022/12/23 09:25:25;;;;;;;;;0.75;0.75;;;;;14.72;88.73;100247.28;4975271;28;45430;-46
2022/12/23 09:27:51;;;;;;;;;0.00;0.00;;;;;14.73;88.78;100265.00;4975584;28;45208;-58
2022/12/23 09:30:16;;;;;;;;;0.75;0.75;;;;;14.79;88.81;100287.56;4975001;28;47941;-46
2022/12/23 09:32:41;;;;;;;;;1.00;1.00;;;;;14.80;88.55;100299.09;4975123;28;45425;-56
2022/12/23 09:35:07;;;;;;;;;1.00;1.00;;;;;14.80;88.63;100293.75;4975448;28;45478;-46
2022/12/23 09:37:32;;;;;;;;;0.00;0.00;;;;;14.83;88.62;100302.25;4975161;28;45498;-50
2022/12/23 09:39:58;;;;;;;;;8.00;7.33;;;;;14.83;88.68;100299.56;4973598;28;46440;-47
2022/12/23 09:42:45;;;;;;;;;1.00;1.00;;;;;14.83;88.83;100307.59;4974791;28;47595;-46
2022/12/23 09:45:19;;;;;;;;;1.50;0.00;;;;;14.83;88.70;100317.44;4975077;28;45461;-50
2022/12/23 09:47:45;;;;;;;;;0.50;0.50;;;;;14.84;88.86;100316.47;4974967;28;45277;-48
2022/12/23 09:50:24;;;;;;;;;0.00;0.00;;;;;14.81;88.64;100304.25;4974878;28;45358;-49
2022/12/23 09:52:58;;;;;;;;;0.00;0.00;;;;;14.86;88.63;100304.53;4974910;28;45244;-50
2022/12/23 09:55:33;;;;;;;;;0.00;0.00;;;;;14.88;88.54;100315.06;4975051;28;45330;-50
2022/12/23 09:58:03;;;;;;;;;0.00;0.00;;;;;14.85;88.46;100305.56;4990142;28;45529;-47
2022/12/23 10:00:38;;;;;;;;;0.00;0.00;;;;;14.88;88.48;100318.59;4974641;27;45611;-49
2022/12/23 10:03:31;;;;;;;;;0.00;0.00;;;;;14.91;88.16;100310.16;4974855;28;45337;-49
2022/12/23 10:06:09;;;;;;;;;1.00;1.00;;;;;14.94;88.02;100308.97;4974888;28;45383;-49
2022/12/23 10:08:43;;;;;;;;;0.67;0.00;;;;;14.94;88.09;100303.59;4975237;28;45312;-52
2022/12/23 10:11:36;;;;;;;;;0.00;0.00;;;;;14.96;87.77;100309.63;4975147;28;46151;-48
2022/12/23 10:14:13;;;;;;;;;0.00;0.00;;;;;15.02;87.83;100314.22;4974984;28;45383;-54
2022/12/23 10:16:43;;;;;;;;;0.00;0.00;;;;;14.99;87.45;100293.16;4975558;28;45471;-53
2022/12/23 10:19:31;;;;;;;;;0.00;0.00;;;;;15.04;87.34;100298.78;4975903;28;45521;-49
2022/12/23 10:22:12;;;;;;;;;0.33;0.00;;;;;15.06;87.39;100280.69;4974941;28;46253;-46
2022/12/23 10:24:43;;;;;;;;;0.00;0.00;;;;;15.09;87.38;100283.00;4974499;28;45273;-49
2022/12/23 10:27:33;;;;;;;;;0.00;0.00;;;;;15.10;87.57;100283.84;4973232;28;45445;-61
2022/12/23 10:30:10;;;;;;;;;0.00;0.00;;;;;15.11;87.90;100294.34;4974965;28;45227;-48
2022/12/23 10:32:54;;;;;;;;;0.75;0.00;;;;;15.11;88.17;100288.16;4974231;28;46168;-52
2022/12/23 10:35:41;;;;;;;;;0.00;0.00;;;;;15.11;88.38;100290.84;4974544;28;45429;-61
2022/12/23 10:38:20;;;;;;;;;0.00;0.00;;;;;15.08;88.58;100289.34;4974455;28;45368;-50
2022/12/23 10:41:24;;;;;;;;;0.67;0.00;;;;;15.07;88.94;100287.69;4974640;28;45374;-49
2022/12/23 10:43:49;;;;;;;;;0.00;0.00;;;;;15.08;89.06;100300.06;4973933;28;45454;-50
2022/12/23 10:46:52;;;;;;;;;0.00;0.00;;;;;15.06;88.78;100282.53;4974322;28;45317;-62
2022/12/23 10:49:46;;;;;;;;;0.00;0.00;;;;;15.06;89.27;100301.28;4952416;28;45413;-61
2022/12/23 10:52:19;;;;;;;;;0.00;0.00;;;;;14.98;88.60;100284.28;4952333;28;45512;-48
2022/12/23 10:54:46;;;;;;;;;0.00;0.00;;;;;15.10;88.63;100287.34;4952377;28;46239;-48
2022/12/23 10:57:14;;;;;;;;;0.00;0.00;;;;;15.14;88.40;100288.63;4952019;28;45367;-49
2022/12/23 10:59:39;;;;;;;;;0.00;0.00;;;;;15.19;88.21;100294.25;4952474;28;45451;-49
2022/12/23 11:02:38;;;;;;;;;0.00;0.00;;;;;15.20;87.77;100284.34;4952801;28;45379;-50
2022/12/23 11:05:13;;;;;;;;;0.00;0.00;;;;;15.27;87.69;100268.38;4952271;28;46308;-49
2022/12/23 11:07:38;;;;;;;;;0.00;0.00;;;;;15.28;87.24;100278.06;4952100;28;45424;-50
2022/12/23 11:10:11;;;;;;;;;0.25;0.25;;;;;15.31;86.90;100278.53;4952308;28;45323;-56
2022/12/23 11:12:45;;;;;;;;;0.00;0.00;;;;;15.34;86.78;100280.81;4952208;28;45658;-51
2022/12/23 11:15:35;;;;;;;;;0.75;0.00;;;;;15.33;86.26;100297.06;4952153;28;45406;-49
2022/12/23 11:18:21;;;;;;;;;0.00;0.00;;;;;15.39;86.39;100299.03;4952068;28;45459;-48
2022/12/23 11:21:05;;;;;;;;;0.00;0.00;;;;;15.39;86.01;100305.22;4952219;28;45352;-48
2022/12/23 11:23:34;;;;;;;;;0.00;0.00;;;;;15.41;86.06;100316.56;4952285;28;45260;-50
2022/12/23 11:26:06;;;;;;;;;0.00;0.00;;;;;15.44;85.78;100310.81;4962207;28;47199;-62
2022/12/23 11:28:35;;;;;;;;;0.00;0.00;;;;;15.45;85.87;100300.94;4973500;28;45490;-49
2022/12/23 11:31:08;;;;;;;;;0.00;0.00;;;;;15.46;84.97;100324.03;4973858;28;45445;-48
2022/12/23 11:33:38;;;;;;;;;0.00;0.00;;;;;15.45;85.05;100304.44;4973821;28;45473;-50
2022/12/23 11:36:16;;;;;;;;;0.00;0.00;;;;;15.50;84.75;100306.53;4973679;28;45431;-48
2022/12/23 11:39:00;;;;;;;;;0.00;0.00;;;;;15.52;84.31;100303.69;4973593;28;45410;-50
2022/12/23 11:41:32;;;;;;;;;0.00;0.00;;;;;15.57;84.46;100298.59;4973597;28;45284;-51
2022/12/23 11:44:03;;;;;;;;;0.00;0.00;;;;;15.60;83.95;100311.63;4973613;28;45422;-48
2022/12/23 11:46:32;;;;;;;;;0.00;0.00;;;;;15.63;84.00;100298.66;4973369;28;45435;-54
2022/12/23 11:49:04;;;;;;;;;0.00;0.00;;;;;15.62;83.31;100293.47;4973411;28;45426;-47
2022/12/23 11:51:30;;;;;;;;;1.00;1.00;;;;;15.67;83.18;100297.31;4972933;28;45364;-49
2022/12/23 11:54:00;;;;;;;;;2.00;0.00;;;;;15.70;83.19;100288.84;4973962;28;45401;-51
2022/12/23 11:56:26;;;;;;;;;0.00;0.00;;;;;15.69;82.61;100299.78;4973615;28;45262;-51
2022/12/23 11:59:02;;;;;;;;;1.75;1.00;;;;;15.75;82.67;100282.09;4973225;28;45301;-49
2022/12/23 12:01:28;;;;;;;;;0.00;0.00;;;;;15.76;82.50;100289.97;4973610;28;45394;-49